sensor_id;sensor_type;location;lat;lon;timestamp;P1;P2;P0
55754;PMS5003;41674;52.290;-1.474;2023-07-24T00:02:05;3;3;
55754;PMS5003;41674;52.290;-1.474;2023-07-24T00:04:39;3;3;
55754;PMS5003;41674;52.290;-1.474;2023-07-24T00:07:03;2;2;
55754;PMS5003;41674;52.290;-1.474;2023-07-24T00:09:33;3;3;
55754;PMS5003;41674;52.290;-1.474;2023-07-24T00:12:03;2;2;
55754;PMS5003;41674;52.290;-1.474;2023-07-24T00:14:32;1;1;
55754;PMS5003;41674;52.290;-1.474;2023-07-24T00:17:02;2;2;
55754;PMS5003;41674;52.290;-1.474;2023-07-24T00:19:36;3;2;
55754;PMS5003;41674;52.290;-1.474;2023-07-24T00:22:01;3;2;
55754;PMS5003;41674;52.290;-1.474;2023-07-24T00:24:31;2;2;
55754;PMS5003;41674;52.290;-1.474;2023-07-24T00:27:00;2;2;
55754;PMS5003;41674;52.290;-1.474;2023-07-24T00:29:35;1;1;
55754;PMS5003;41674;52.290;-1.474;2023-07-24T00:31:59;2;2;
55754;PMS5003;41674;52.290;-1.474;2023-07-24T00:34:34;2;2;
55754;PMS5003;41674;52.290;-1.474;2023-07-24T00:36:58;2;2;
55754;PMS5003;41674;52.290;-1.474;2023-07-24T00:39:28;1;1;
55754;PMS5003;41674;52.290;-1.474;2023-07-24T00:41:57;2;2;
55754;PMS5003;41674;52.290;-1.474;2023-07-24T00:44:27;1;1;
55754;PMS5003;41674;52.290;-1.474;2023-07-24T00:46:57;2;2;
55754;PMS5003;41674;52.290;-1.474;2023-07-24T00:49:26;1;1;
55754;PMS5003;41674;52.290;-1.474;2023-07-24T00:51:56;3;1;
55754;PMS5003;41674;52.290;-1.474;2023-07-24T00:54:26;2;2;
55754;PMS5003;41674;52.290;-1.474;2023-07-24T00:56:55;2;2;
55754;PMS5003;41674;52.290;-1.474;2023-07-24T00:59:24;0;0;
55754;PMS5003;41674;52.290;-1.474;2023-07-24T01:01:54;1;1;
55754;PMS5003;41674;52.290;-1.474;2023-07-24T01:04:24;1;1;
55754;PMS5003;41674;52.290;-1.474;2023-07-24T01:06:58;1;1;
55754;PMS5003;41674;52.290;-1.474;2023-07-24T01:09:23;0;0;
55754;PMS5003;41674;52.290;-1.474;2023-07-24T01:11:55;0;0;
55754;PMS5003;41674;52.290;-1.474;2023-07-24T01:16:51;1;1;
55754;PMS5003;41674;52.290;-1.474;2023-07-24T01:19:26;0;0;
55754;PMS5003;41674;52.290;-1.474;2023-07-24T01:22:01;0;0;
55754;PMS5003;41674;52.290;-1.474;2023-07-24T01:24:23;0;0;
55754;PMS5003;41674;52.290;-1.474;2023-07-24T01:26:50;0;0;
55754;PMS5003;41674;52.290;-1.474;2023-07-24T01:29:19;1;0;
55754;PMS5003;41674;52.290;-1.474;2023-07-24T01:31:49;0;0;
55754;PMS5003;41674;52.290;-1.474;2023-07-24T01:34:18;0;0;
55754;PMS5003;41674;52.290;-1.474;2023-07-24T01:36:48;0;0;
55754;PMS5003;41674;52.290;-1.474;2023-07-24T01:39:23;1;1;
55754;PMS5003;41674;52.290;-1.474;2023-07-24T01:41:50;1;1;
55754;PMS5003;41674;52.290;-1.474;2023-07-24T01:44:16;1;1;
55754;PMS5003;41674;52.290;-1.474;2023-07-24T01:46:46;0;0;
55754;PMS5003;41674;52.290;-1.474;2023-07-24T01:49:16;1;1;
55754;PMS5003;41674;52.290;-1.474;2023-07-24T01:51:45;1;1;
55754;PMS5003;41674;52.290;-1.474;2023-07-24T01:54:15;0;0;
55754;PMS5003;41674;52.290;-1.474;2023-07-24T01:56:44;1;1;
55754;PMS5003;41674;52.290;-1.474;2023-07-24T01:59:14;1;1;
55754;PMS5003;41674;52.290;-1.474;2023-07-24T02:01:43;0;0;
55754;PMS5003;41674;52.290;-1.474;2023-07-24T02:04:13;1;1;
55754;PMS5003;41674;52.290;-1.474;2023-07-24T02:06:42;1;1;
55754;PMS5003;41674;52.290;-1.474;2023-07-24T02:09:12;0;0;
55754;PMS5003;41674;52.290;-1.474;2023-07-24T02:11:42;0;0;
55754;PMS5003;41674;52.290;-1.474;2023-07-24T02:14:11;0;0;
55754;PMS5003;41674;52.290;-1.474;2023-07-24T02:16:41;1;1;
55754;PMS5003;41674;52.290;-1.474;2023-07-24T02:19:20;0;0;
55754;PMS5003;41674;52.290;-1.474;2023-07-24T02:21:40;0;0;
55754;PMS5003;41674;52.290;-1.474;2023-07-24T02:24:10;3;1;
55754;PMS5003;41674;52.290;-1.474;2023-07-24T02:26:39;0;0;
55754;PMS5003;41674;52.290;-1.474;2023-07-24T02:29:08;1;1;
55754;PMS5003;41674;52.290;-1.474;2023-07-24T02:31:38;1;1;
55754;PMS5003;41674;52.290;-1.474;2023-07-24T02:34:08;1;1;
55754;PMS5003;41674;52.290;-1.474;2023-07-24T02:36:37;0;0;
55754;PMS5003;41674;52.290;-1.474;2023-07-24T02:39:07;0;0;
55754;PMS5003;41674;52.290;-1.474;2023-07-24T02:41:37;1;1;
55754;PMS5003;41674;52.290;-1.474;2023-07-24T02:44:06;0;0;
55754;PMS5003;41674;52.290;-1.474;2023-07-24T02:46:40;0;0;
55754;PMS5003;41674;52.290;-1.474;2023-07-24T02:49:05;0;0;
55754;PMS5003;41674;52.290;-1.474;2023-07-24T02:51:34;1;1;
55754;PMS5003;41674;52.290;-1.474;2023-07-24T02:54:04;0;0;
55754;PMS5003;41674;52.290;-1.474;2023-07-24T02:56:34;0;0;
55754;PMS5003;41674;52.290;-1.474;2023-07-24T02:59:03;0;0;
55754;PMS5003;41674;52.290;-1.474;2023-07-24T03:01:33;0;0;
55754;PMS5003;41674;52.290;-1.474;2023-07-24T03:04:02;1;0;
55754;PMS5003;41674;52.290;-1.474;2023-07-24T03:06:32;0;0;
55754;PMS5003;41674;52.290;-1.474;2023-07-24T03:09:01;0;0;
55754;PMS5003;41674;52.290;-1.474;2023-07-24T03:11:31;0;0;
55754;PMS5003;41674;52.290;-1.474;2023-07-24T03:14:02;0;0;
55754;PMS5003;41674;52.290;-1.474;2023-07-24T03:16:30;0;0;
55754;PMS5003;41674;52.290;-1.474;2023-07-24T03:19:00;0;0;
55754;PMS5003;41674;52.290;-1.474;2023-07-24T03:21:30;0;0;
55754;PMS5003;41674;52.290;-1.474;2023-07-24T03:23:59;0;0;
55754;PMS5003;41674;52.290;-1.474;2023-07-24T03:26:28;0;0;
55754;PMS5003;41674;52.290;-1.474;2023-07-24T03:28:58;0;0;
55754;PMS5003;41674;52.290;-1.474;2023-07-24T03:31:28;0;0;
55754;PMS5003;41674;52.290;-1.474;2023-07-24T03:33:57;0;0;
55754;PMS5003;41674;52.290;-1.474;2023-07-24T03:36:27;0;0;
55754;PMS5003;41674;52.290;-1.474;2023-07-24T03:38:56;0;0;
55754;PMS5003;41674;52.290;-1.474;2023-07-24T03:41:26;0;0;
55754;PMS5003;41674;52.290;-1.474;2023-07-24T03:43:55;0;0;
55754;PMS5003;41674;52.290;-1.474;2023-07-24T03:46:26;1;1;
55754;PMS5003;41674;52.290;-1.474;2023-07-24T03:48:55;0;0;
55754;PMS5003;41674;52.290;-1.474;2023-07-24T03:51:24;0;0;
55754;PMS5003;41674;52.290;-1.474;2023-07-24T03:53:54;0;0;
55754;PMS5003;41674;52.290;-1.474;2023-07-24T03:56:23;0;0;
55754;PMS5003;41674;52.290;-1.474;2023-07-24T03:58:53;0;0;
55754;PMS5003;41674;52.290;-1.474;2023-07-24T04:01:23;0;0;
55754;PMS5003;41674;52.290;-1.474;2023-07-24T04:03:52;0;0;
55754;PMS5003;41674;52.290;-1.474;2023-07-24T04:06:21;1;1;
55754;PMS5003;41674;52.290;-1.474;2023-07-24T04:08:51;1;1;
55754;PMS5003;41674;52.290;-1.474;2023-07-24T04:11:21;0;0;
55754;PMS5003;41674;52.290;-1.474;2023-07-24T04:13:51;0;0;
55754;PMS5003;41674;52.290;-1.474;2023-07-24T04:16:20;0;0;
55754;PMS5003;41674;52.290;-1.474;2023-07-24T04:18:50;1;1;
55754;PMS5003;41674;52.290;-1.474;2023-07-24T04:21:19;0;0;
55754;PMS5003;41674;52.290;-1.474;2023-07-24T04:23:48;0;0;
55754;PMS5003;41674;52.290;-1.474;2023-07-24T04:26:18;0;0;
55754;PMS5003;41674;52.290;-1.474;2023-07-24T04:28:48;1;1;
55754;PMS5003;41674;52.290;-1.474;2023-07-24T04:31:17;0;0;
55754;PMS5003;41674;52.290;-1.474;2023-07-24T04:33:47;0;0;
55754;PMS5003;41674;52.290;-1.474;2023-07-24T04:36:16;0;0;
55754;PMS5003;41674;52.290;-1.474;2023-07-24T04:38:46;1;1;
55754;PMS5003;41674;52.290;-1.474;2023-07-24T04:41:15;1;1;
55754;PMS5003;41674;52.290;-1.474;2023-07-24T04:43:45;0;0;
55754;PMS5003;41674;52.290;-1.474;2023-07-24T04:46:15;1;1;
55754;PMS5003;41674;52.290;-1.474;2023-07-24T04:48:45;1;1;
55754;PMS5003;41674;52.290;-1.474;2023-07-24T04:51:14;1;0;
55754;PMS5003;41674;52.290;-1.474;2023-07-24T04:53:48;1;1;
55754;PMS5003;41674;52.290;-1.474;2023-07-24T04:56:13;1;1;
55754;PMS5003;41674;52.290;-1.474;2023-07-24T04:58:43;2;2;
55754;PMS5003;41674;52.290;-1.474;2023-07-24T05:01:12;1;1;
55754;PMS5003;41674;52.290;-1.474;2023-07-24T05:03:41;2;2;
55754;PMS5003;41674;52.290;-1.474;2023-07-24T05:06:11;3;3;
55754;PMS5003;41674;52.290;-1.474;2023-07-24T05:08:41;2;2;
55754;PMS5003;41674;52.290;-1.474;2023-07-24T05:11:10;3;3;
55754;PMS5003;41674;52.290;-1.474;2023-07-24T05:16:09;3;3;
55754;PMS5003;41674;52.290;-1.474;2023-07-24T05:18:39;4;4;
55754;PMS5003;41674;52.290;-1.474;2023-07-24T05:21:08;4;4;
55754;PMS5003;41674;52.290;-1.474;2023-07-24T05:23:39;5;5;
55754;PMS5003;41674;52.290;-1.474;2023-07-24T05:26:08;4;4;
55754;PMS5003;41674;52.290;-1.474;2023-07-24T05:28:38;5;5;
55754;PMS5003;41674;52.290;-1.474;2023-07-24T05:31:07;4;4;
55754;PMS5003;41674;52.290;-1.474;2023-07-24T05:33:37;6;6;
55754;PMS5003;41674;52.290;-1.474;2023-07-24T05:36:06;6;4;
55754;PMS5003;41674;52.290;-1.474;2023-07-24T05:38:36;6;5;
55754;PMS5003;41674;52.290;-1.474;2023-07-24T05:41:05;3;3;
55754;PMS5003;41674;52.290;-1.474;2023-07-24T05:43:35;5;5;
55754;PMS5003;41674;52.290;-1.474;2023-07-24T05:46:05;2;2;
55754;PMS5003;41674;52.290;-1.474;2023-07-24T05:48:34;5;5;
55754;PMS5003;41674;52.290;-1.474;2023-07-24T05:51:04;4;3;
55754;PMS5003;41674;52.290;-1.474;2023-07-24T05:53:33;3;2;
55754;PMS5003;41674;52.290;-1.474;2023-07-24T05:56:03;3;3;
55754;PMS5003;41674;52.290;-1.474;2023-07-24T05:58:33;5;3;
55754;PMS5003;41674;52.290;-1.474;2023-07-24T06:01:02;3;3;
55754;PMS5003;41674;52.290;-1.474;2023-07-24T06:03:31;3;3;
55754;PMS5003;41674;52.290;-1.474;2023-07-24T06:06:02;3;3;
55754;PMS5003;41674;52.290;-1.474;2023-07-24T06:08:31;2;2;
55754;PMS5003;41674;52.290;-1.474;2023-07-24T06:11:00;2;2;
55754;PMS5003;41674;52.290;-1.474;2023-07-24T06:13:30;2;2;
55754;PMS5003;41674;52.290;-1.474;2023-07-24T06:15:59;3;2;
55754;PMS5003;41674;52.290;-1.474;2023-07-24T06:18:30;4;4;
55754;PMS5003;41674;52.290;-1.474;2023-07-24T06:20:59;5;5;
55754;PMS5003;41674;52.290;-1.474;2023-07-24T06:23:33;3;3;
55754;PMS5003;41674;52.290;-1.474;2023-07-24T06:26:00;4;3;
55754;PMS5003;41674;52.290;-1.474;2023-07-24T06:28:27;4;3;
55754;PMS5003;41674;52.290;-1.474;2023-07-24T06:30:57;4;4;
55754;PMS5003;41674;52.290;-1.474;2023-07-24T06:33:27;3;3;
55754;PMS5003;41674;52.290;-1.474;2023-07-24T06:35:58;4;4;
55754;PMS5003;41674;52.290;-1.474;2023-07-24T06:38:26;1;1;
55754;PMS5003;41674;52.290;-1.474;2023-07-24T06:40:55;4;4;
55754;PMS5003;41674;52.290;-1.474;2023-07-24T06:43:30;3;3;
55754;PMS5003;41674;52.290;-1.474;2023-07-24T06:45:54;3;3;
55754;PMS5003;41674;52.290;-1.474;2023-07-24T06:48:24;3;3;
55754;PMS5003;41674;52.290;-1.474;2023-07-24T06:50:54;3;3;
55754;PMS5003;41674;52.290;-1.474;2023-07-24T06:53:23;3;3;
55754;PMS5003;41674;52.290;-1.474;2023-07-24T06:55:53;3;3;
55754;PMS5003;41674;52.290;-1.474;2023-07-24T06:58:22;2;2;
55754;PMS5003;41674;52.290;-1.474;2023-07-24T07:00:52;3;3;
55754;PMS5003;41674;52.290;-1.474;2023-07-24T07:03:31;4;3;
55754;PMS5003;41674;52.290;-1.474;2023-07-24T07:05:51;3;3;
55754;PMS5003;41674;52.290;-1.474;2023-07-24T07:08:21;2;2;
55754;PMS5003;41674;52.290;-1.474;2023-07-24T07:10:54;2;2;
55754;PMS5003;41674;52.290;-1.474;2023-07-24T07:13:20;2;2;
55754;PMS5003;41674;52.290;-1.474;2023-07-24T07:15:49;2;2;
55754;PMS5003;41674;52.290;-1.474;2023-07-24T07:18:19;2;2;
55754;PMS5003;41674;52.290;-1.474;2023-07-24T07:20:49;4;2;
55754;PMS5003;41674;52.290;-1.474;2023-07-24T07:23:18;4;4;
55754;PMS5003;41674;52.290;-1.474;2023-07-24T07:25:48;4;3;
55754;PMS5003;41674;52.290;-1.474;2023-07-24T07:28:17;4;4;
55754;PMS5003;41674;52.290;-1.474;2023-07-24T07:30:47;3;3;
55754;PMS5003;41674;52.290;-1.474;2023-07-24T07:33:17;3;3;
55754;PMS5003;41674;52.290;-1.474;2023-07-24T07:35:47;5;4;
55754;PMS5003;41674;52.290;-1.474;2023-07-24T07:38:16;4;4;
55754;PMS5003;41674;52.290;-1.474;2023-07-24T07:40:46;5;5;
55754;PMS5003;41674;52.290;-1.474;2023-07-24T07:43:15;3;2;
55754;PMS5003;41674;52.290;-1.474;2023-07-24T07:45:45;5;4;
55754;PMS5003;41674;52.290;-1.474;2023-07-24T07:48:20;3;3;
55754;PMS5003;41674;52.290;-1.474;2023-07-24T07:50:44;4;4;
55754;PMS5003;41674;52.290;-1.474;2023-07-24T07:53:13;4;4;
55754;PMS5003;41674;52.290;-1.474;2023-07-24T07:55:43;3;3;
55754;PMS5003;41674;52.290;-1.474;2023-07-24T07:58:12;3;3;
55754;PMS5003;41674;52.290;-1.474;2023-07-24T08:00:42;3;3;
55754;PMS5003;41674;52.290;-1.474;2023-07-24T08:03:12;3;3;
55754;PMS5003;41674;52.290;-1.474;2023-07-24T08:05:41;2;2;
55754;PMS5003;41674;52.290;-1.474;2023-07-24T08:08:11;3;3;
55754;PMS5003;41674;52.290;-1.474;2023-07-24T08:10:40;1;1;
55754;PMS5003;41674;52.290;-1.474;2023-07-24T08:13:10;0;0;
55754;PMS5003;41674;52.290;-1.474;2023-07-24T08:15:44;2;2;
55754;PMS5003;41674;52.290;-1.474;2023-07-24T08:18:09;3;1;
55754;PMS5003;41674;52.290;-1.474;2023-07-24T08:23:08;2;2;
55754;PMS5003;41674;52.290;-1.474;2023-07-24T08:25:38;2;2;
55754;PMS5003;41674;52.290;-1.474;2023-07-24T08:28:07;2;2;
55754;PMS5003;41674;52.290;-1.474;2023-07-24T08:30:37;3;3;
55754;PMS5003;41674;52.290;-1.474;2023-07-24T08:33:08;1;1;
55754;PMS5003;41674;52.290;-1.474;2023-07-24T08:35:36;1;1;
55754;PMS5003;41674;52.290;-1.474;2023-07-24T08:38:06;2;2;
55754;PMS5003;41674;52.290;-1.474;2023-07-24T08:40:35;3;2;
55754;PMS5003;41674;52.290;-1.474;2023-07-24T08:43:05;2;2;
55754;PMS5003;41674;52.290;-1.474;2023-07-24T08:45:34;2;2;
55754;PMS5003;41674;52.290;-1.474;2023-07-24T08:48:04;2;2;
55754;PMS5003;41674;52.290;-1.474;2023-07-24T08:50:34;3;3;
55754;PMS5003;41674;52.290;-1.474;2023-07-24T08:53:03;2;2;
55754;PMS5003;41674;52.290;-1.474;2023-07-24T08:55:33;3;3;
55754;PMS5003;41674;52.290;-1.474;2023-07-24T08:58:02;2;2;
55754;PMS5003;41674;52.290;-1.474;2023-07-24T09:00:32;2;2;
55754;PMS5003;41674;52.290;-1.474;2023-07-24T09:03:01;1;1;
55754;PMS5003;41674;52.290;-1.474;2023-07-24T09:05:31;3;3;
55754;PMS5003;41674;52.290;-1.474;2023-07-24T09:08:00;3;3;
55754;PMS5003;41674;52.290;-1.474;2023-07-24T09:10:30;2;2;
55754;PMS5003;41674;52.290;-1.474;2023-07-24T09:12:59;1;1;
55754;PMS5003;41674;52.290;-1.474;2023-07-24T09:15:29;1;1;
55754;PMS5003;41674;52.290;-1.474;2023-07-24T09:17:59;2;2;
55754;PMS5003;41674;52.290;-1.474;2023-07-24T09:20:37;1;1;
55754;PMS5003;41674;52.290;-1.474;2023-07-24T09:22:58;3;1;
55754;PMS5003;41674;52.290;-1.474;2023-07-24T09:25:30;2;2;
55754;PMS5003;41674;52.290;-1.474;2023-07-24T09:27:57;3;3;
55754;PMS5003;41674;52.290;-1.474;2023-07-24T09:30:26;2;2;
55754;PMS5003;41674;52.290;-1.474;2023-07-24T09:32:56;3;2;
55754;PMS5003;41674;52.290;-1.474;2023-07-24T09:35:26;3;3;
55754;PMS5003;41674;52.290;-1.474;2023-07-24T09:40:25;2;2;
55754;PMS5003;41674;52.290;-1.474;2023-07-24T09:42:54;2;2;
55754;PMS5003;41674;52.290;-1.474;2023-07-24T09:45:23;3;3;
55754;PMS5003;41674;52.290;-1.474;2023-07-24T09:47:53;3;3;
55754;PMS5003;41674;52.290;-1.474;2023-07-24T09:50:23;3;3;
55754;PMS5003;41674;52.290;-1.474;2023-07-24T09:52:52;3;3;
55754;PMS5003;41674;52.290;-1.474;2023-07-24T09:55:23;2;2;
55754;PMS5003;41674;52.290;-1.474;2023-07-24T09:57:51;3;2;
55754;PMS5003;41674;52.290;-1.474;2023-07-24T10:00:21;2;2;
55754;PMS5003;41674;52.290;-1.474;2023-07-24T10:02:50;3;3;
55754;PMS5003;41674;52.290;-1.474;2023-07-24T10:05:25;2;2;
55754;PMS5003;41674;52.290;-1.474;2023-07-24T10:07:50;2;2;
55754;PMS5003;41674;52.290;-1.474;2023-07-24T10:10:19;3;3;
55754;PMS5003;41674;52.290;-1.474;2023-07-24T10:12:49;2;2;
55754;PMS5003;41674;52.290;-1.474;2023-07-24T10:15:18;2;2;
55754;PMS5003;41674;52.290;-1.474;2023-07-24T10:17:48;3;3;
55754;PMS5003;41674;52.290;-1.474;2023-07-24T10:20:17;3;3;
55754;PMS5003;41674;52.290;-1.474;2023-07-24T10:22:47;4;4;
55754;PMS5003;41674;52.290;-1.474;2023-07-24T10:25:17;4;4;
55754;PMS5003;41674;52.290;-1.474;2023-07-24T10:27:46;4;4;
55754;PMS5003;41674;52.290;-1.474;2023-07-24T10:30:16;2;2;
55754;PMS5003;41674;52.290;-1.474;2023-07-24T10:32:45;3;3;
55754;PMS5003;41674;52.290;-1.474;2023-07-24T10:35:15;3;2;
55754;PMS5003;41674;52.290;-1.474;2023-07-24T10:37:44;3;2;
55754;PMS5003;41674;52.290;-1.474;2023-07-24T10:40:19;3;3;
55754;PMS5003;41674;52.290;-1.474;2023-07-24T10:42:44;3;3;
55754;PMS5003;41674;52.290;-1.474;2023-07-24T10:45:13;2;2;
55754;PMS5003;41674;52.290;-1.474;2023-07-24T10:47:43;4;4;
55754;PMS5003;41674;52.290;-1.474;2023-07-24T10:50:12;3;3;
55754;PMS5003;41674;52.290;-1.474;2023-07-24T10:52:42;1;1;
55754;PMS5003;41674;52.290;-1.474;2023-07-24T10:55:11;3;3;
55754;PMS5003;41674;52.290;-1.474;2023-07-24T10:57:41;3;3;
55754;PMS5003;41674;52.290;-1.474;2023-07-24T11:00:11;9;6;
55754;PMS5003;41674;52.290;-1.474;2023-07-24T11:02:40;5;5;
55754;PMS5003;41674;52.290;-1.474;2023-07-24T11:05:10;8;6;
55754;PMS5003;41674;52.290;-1.474;2023-07-24T11:07:40;6;5;
55754;PMS5003;41674;52.290;-1.474;2023-07-24T11:12:39;7;6;
55754;PMS5003;41674;52.290;-1.474;2023-07-24T11:15:07;6;4;
55754;PMS5003;41674;52.290;-1.474;2023-07-24T11:17:37;5;5;
55754;PMS5003;41674;52.290;-1.474;2023-07-24T11:20:08;6;6;
55754;PMS5003;41674;52.290;-1.474;2023-07-24T11:22:37;5;5;
55754;PMS5003;41674;52.290;-1.474;2023-07-24T11:25:06;7;7;
55754;PMS5003;41674;52.290;-1.474;2023-07-24T11:27:38;7;6;
55754;PMS5003;41674;52.290;-1.474;2023-07-24T11:30:06;5;5;
55754;PMS5003;41674;52.290;-1.474;2023-07-24T11:32:34;12;6;
55754;PMS5003;41674;52.290;-1.474;2023-07-24T11:35:04;8;6;
55754;PMS5003;41674;52.290;-1.474;2023-07-24T11:37:33;4;4;
55754;PMS5003;41674;52.290;-1.474;2023-07-24T11:40:03;3;3;
55754;PMS5003;41674;52.290;-1.474;2023-07-24T11:42:32;4;4;
55754;PMS5003;41674;52.290;-1.474;2023-07-24T11:47:31;5;5;
55754;PMS5003;41674;52.290;-1.474;2023-07-24T11:50:02;4;4;
55754;PMS5003;41674;52.290;-1.474;2023-07-24T11:55:00;4;4;
55754;PMS5003;41674;52.290;-1.474;2023-07-24T11:57:30;4;4;
55754;PMS5003;41674;52.290;-1.474;2023-07-24T11:59:59;5;5;
55754;PMS5003;41674;52.290;-1.474;2023-07-24T12:02:29;4;4;
55754;PMS5003;41674;52.290;-1.474;2023-07-24T12:04:59;5;5;
55754;PMS5003;41674;52.290;-1.474;2023-07-24T12:07:28;4;4;
55754;PMS5003;41674;52.290;-1.474;2023-07-24T12:09:58;6;5;
55754;PMS5003;41674;52.290;-1.474;2023-07-24T12:14:57;5;5;
55754;PMS5003;41674;52.290;-1.474;2023-07-24T12:17:26;4;4;
55754;PMS5003;41674;52.290;-1.474;2023-07-24T12:19:55;6;6;
55754;PMS5003;41674;52.290;-1.474;2023-07-24T12:22:25;5;4;
55754;PMS5003;41674;52.290;-1.474;2023-07-24T12:24:55;4;4;
55754;PMS5003;41674;52.290;-1.474;2023-07-24T12:27:24;5;4;
55754;PMS5003;41674;52.290;-1.474;2023-07-24T12:29:54;3;3;
55754;PMS5003;41674;52.290;-1.474;2023-07-24T12:32:23;5;5;
55754;PMS5003;41674;52.290;-1.474;2023-07-24T12:34:53;4;4;
55754;PMS5003;41674;52.290;-1.474;2023-07-24T12:37:23;4;3;
55754;PMS5003;41674;52.290;-1.474;2023-07-24T12:39:52;4;4;
55754;PMS5003;41674;52.290;-1.474;2023-07-24T12:42:21;4;4;
55754;PMS5003;41674;52.290;-1.474;2023-07-24T12:44:51;4;4;
55754;PMS5003;41674;52.290;-1.474;2023-07-24T12:47:21;8;6;
55754;PMS5003;41674;52.290;-1.474;2023-07-24T12:49:51;3;3;
55754;PMS5003;41674;52.290;-1.474;2023-07-24T12:52:20;5;4;
55754;PMS5003;41674;52.290;-1.474;2023-07-24T12:54:49;4;4;
55754;PMS5003;41674;52.290;-1.474;2023-07-24T12:57:19;3;3;
55754;PMS5003;41674;52.290;-1.474;2023-07-24T12:59:48;3;3;
55754;PMS5003;41674;52.290;-1.474;2023-07-24T13:02:18;4;4;
55754;PMS5003;41674;52.290;-1.474;2023-07-24T13:04:47;4;4;
55754;PMS5003;41674;52.290;-1.474;2023-07-24T13:07:17;4;4;
55754;PMS5003;41674;52.290;-1.474;2023-07-24T13:09:46;4;3;
55754;PMS5003;41674;52.290;-1.474;2023-07-24T13:12:16;3;3;
55754;PMS5003;41674;52.290;-1.474;2023-07-24T13:14:45;3;3;
55754;PMS5003;41674;52.290;-1.474;2023-07-24T13:17:16;6;6;
55754;PMS5003;41674;52.290;-1.474;2023-07-24T13:19:45;5;5;
55754;PMS5003;41674;52.290;-1.474;2023-07-24T13:22:14;5;5;
55754;PMS5003;41674;52.290;-1.474;2023-07-24T13:24:44;6;6;
55754;PMS5003;41674;52.290;-1.474;2023-07-24T13:27:13;4;4;
55754;PMS5003;41674;52.290;-1.474;2023-07-24T13:29:43;4;4;
55754;PMS5003;41674;52.290;-1.474;2023-07-24T13:32:12;4;4;
55754;PMS5003;41674;52.290;-1.474;2023-07-24T13:34:42;4;4;
55754;PMS5003;41674;52.290;-1.474;2023-07-24T13:37:11;4;4;
55754;PMS5003;41674;52.290;-1.474;2023-07-24T13:39:41;6;6;
55754;PMS5003;41674;52.290;-1.474;2023-07-24T13:42:10;5;5;
55754;PMS5003;41674;52.290;-1.474;2023-07-24T13:44:40;6;4;
55754;PMS5003;41674;52.290;-1.474;2023-07-24T13:47:10;6;5;
55754;PMS5003;41674;52.290;-1.474;2023-07-24T13:49:39;5;5;
55754;PMS5003;41674;52.290;-1.474;2023-07-24T13:52:10;6;6;
55754;PMS5003;41674;52.290;-1.474;2023-07-24T13:54:38;6;5;
55754;PMS5003;41674;52.290;-1.474;2023-07-24T13:57:08;6;6;
55754;PMS5003;41674;52.290;-1.474;2023-07-24T13:59:37;6;6;
55754;PMS5003;41674;52.290;-1.474;2023-07-24T14:02:07;7;6;
55754;PMS5003;41674;52.290;-1.474;2023-07-24T14:04:36;7;7;
55754;PMS5003;41674;52.290;-1.474;2023-07-24T14:07:06;6;5;
55754;PMS5003;41674;52.290;-1.474;2023-07-24T14:09:36;6;6;
55754;PMS5003;41674;52.290;-1.474;2023-07-24T14:12:06;5;5;
55754;PMS5003;41674;52.290;-1.474;2023-07-24T14:14:34;6;6;
55754;PMS5003;41674;52.290;-1.474;2023-07-24T14:17:09;5;4;
55754;PMS5003;41674;52.290;-1.474;2023-07-24T14:19:33;6;5;
55754;PMS5003;41674;52.290;-1.474;2023-07-24T14:22:03;5;5;
55754;PMS5003;41674;52.290;-1.474;2023-07-24T14:24:32;5;3;
55754;PMS5003;41674;52.290;-1.474;2023-07-24T14:27:02;5;4;
55754;PMS5003;41674;52.290;-1.474;2023-07-24T14:29:31;5;4;
55754;PMS5003;41674;52.290;-1.474;2023-07-24T14:32:01;3;3;
55754;PMS5003;41674;52.290;-1.474;2023-07-24T14:34:31;4;4;
55754;PMS5003;41674;52.290;-1.474;2023-07-24T14:37:00;7;3;
55754;PMS5003;41674;52.290;-1.474;2023-07-24T14:39:30;5;4;
55754;PMS5003;41674;52.290;-1.474;2023-07-24T14:41:59;3;3;
55754;PMS5003;41674;52.290;-1.474;2023-07-24T14:44:29;4;4;
55754;PMS5003;41674;52.290;-1.474;2023-07-24T14:46:58;3;3;
55754;PMS5003;41674;52.290;-1.474;2023-07-24T14:49:28;5;4;
55754;PMS5003;41674;52.290;-1.474;2023-07-24T14:51:57;6;4;
55754;PMS5003;41674;52.290;-1.474;2023-07-24T14:54:27;5;5;
55754;PMS5003;41674;52.290;-1.474;2023-07-24T14:56:57;5;5;
55754;PMS5003;41674;52.290;-1.474;2023-07-24T14:59:26;4;4;
55754;PMS5003;41674;52.290;-1.474;2023-07-24T15:01:56;4;4;
55754;PMS5003;41674;52.290;-1.474;2023-07-24T15:04:25;5;5;
55754;PMS5003;41674;52.290;-1.474;2023-07-24T15:06:54;6;6;
55754;PMS5003;41674;52.290;-1.474;2023-07-24T15:09:24;4;4;
55754;PMS5003;41674;52.290;-1.474;2023-07-24T15:11:54;4;4;
55754;PMS5003;41674;52.290;-1.474;2023-07-24T15:14:23;6;5;
55754;PMS5003;41674;52.290;-1.474;2023-07-24T15:16:54;6;5;
55754;PMS5003;41674;52.290;-1.474;2023-07-24T15:19:22;6;5;
55754;PMS5003;41674;52.290;-1.474;2023-07-24T15:21:52;7;7;
55754;PMS5003;41674;52.290;-1.474;2023-07-24T15:24:21;5;5;
55754;PMS5003;41674;52.290;-1.474;2023-07-24T15:26:51;5;5;
55754;PMS5003;41674;52.290;-1.474;2023-07-24T15:29:20;6;5;
55754;PMS5003;41674;52.290;-1.474;2023-07-24T15:31:50;6;6;
55754;PMS5003;41674;52.290;-1.474;2023-07-24T15:34:19;8;6;
55754;PMS5003;41674;52.290;-1.474;2023-07-24T15:36:49;6;6;
55754;PMS5003;41674;52.290;-1.474;2023-07-24T15:39:19;6;5;
55754;PMS5003;41674;52.290;-1.474;2023-07-24T15:41:48;4;3;
55754;PMS5003;41674;52.290;-1.474;2023-07-24T15:44:18;5;5;
55754;PMS5003;41674;52.290;-1.474;2023-07-24T15:46:47;5;5;
55754;PMS5003;41674;52.290;-1.474;2023-07-24T15:49:17;5;5;
55754;PMS5003;41674;52.290;-1.474;2023-07-24T15:51:46;5;4;
55754;PMS5003;41674;52.290;-1.474;2023-07-24T15:54:16;5;5;
55754;PMS5003;41674;52.290;-1.474;2023-07-24T15:56:46;4;4;
55754;PMS5003;41674;52.290;-1.474;2023-07-24T15:59:15;4;4;
55754;PMS5003;41674;52.290;-1.474;2023-07-24T16:01:44;5;4;
55754;PMS5003;41674;52.290;-1.474;2023-07-24T16:04:14;4;4;
55754;PMS5003;41674;52.290;-1.474;2023-07-24T16:06:43;4;4;
55754;PMS5003;41674;52.290;-1.474;2023-07-24T16:09:13;4;4;
55754;PMS5003;41674;52.290;-1.474;2023-07-24T16:11:42;2;2;
55754;PMS5003;41674;52.290;-1.474;2023-07-24T16:14:12;5;3;
55754;PMS5003;41674;52.290;-1.474;2023-07-24T16:16:42;3;3;
55754;PMS5003;41674;52.290;-1.474;2023-07-24T16:19:13;3;3;
55754;PMS5003;41674;52.290;-1.474;2023-07-24T16:21:41;2;2;
55754;PMS5003;41674;52.290;-1.474;2023-07-24T16:24:10;3;3;
55754;PMS5003;41674;52.290;-1.474;2023-07-24T16:26:40;5;3;
55754;PMS5003;41674;52.290;-1.474;2023-07-24T16:29:09;3;3;
55754;PMS5003;41674;52.290;-1.474;2023-07-24T16:31:39;5;5;
55754;PMS5003;41674;52.290;-1.474;2023-07-24T16:34:08;5;5;
55754;PMS5003;41674;52.290;-1.474;2023-07-24T16:36:39;3;3;
55754;PMS5003;41674;52.290;-1.474;2023-07-24T16:39:07;5;5;
55754;PMS5003;41674;52.290;-1.474;2023-07-24T16:41:37;4;4;
55754;PMS5003;41674;52.290;-1.474;2023-07-24T16:44:06;5;4;
55754;PMS5003;41674;52.290;-1.474;2023-07-24T16:46:41;4;4;
55754;PMS5003;41674;52.290;-1.474;2023-07-24T16:49:06;4;4;
55754;PMS5003;41674;52.290;-1.474;2023-07-24T16:51:35;5;5;
55754;PMS5003;41674;52.290;-1.474;2023-07-24T16:54:05;4;3;
55754;PMS5003;41674;52.290;-1.474;2023-07-24T16:56:34;4;4;
55754;PMS5003;41674;52.290;-1.474;2023-07-24T16:59:04;5;5;
55754;PMS5003;41674;52.290;-1.474;2023-07-24T17:01:33;6;5;
55754;PMS5003;41674;52.290;-1.474;2023-07-24T17:04:03;2;2;
55754;PMS5003;41674;52.290;-1.474;2023-07-24T17:06:32;3;3;
55754;PMS5003;41674;52.290;-1.474;2023-07-24T17:09:02;4;4;